METAR Data
IDs: Format: Raw Decoded Include TAF

Data at: 0730 UTC 18 Sep 2021

ESOH 180720Z AUTO VRB03KT 9999 OVC049/// 08/05 Q1025